sensor_id;sensor_type;location;lat;lon;timestamp;P1;durP1;ratioP1;P2;durP2;ratioP2
3149;SDS011;32503;47.748;8.960;2023-07-16T00:00:14;3.23;;;3.03;;
3149;SDS011;32503;47.748;8.960;2023-07-16T00:02:43;4.87;;;3.57;;
3149;SDS011;32503;47.748;8.960;2023-07-16T00:05:10;2.73;;;2.63;;
3149;SDS011;32503;47.748;8.960;2023-07-16T00:07:39;3.33;;;3.23;;
3149;SDS011;32503;47.748;8.960;2023-07-16T00:10:06;3.50;;;3.40;;
3149;SDS011;32503;47.748;8.960;2023-07-16T00:12:34;3.00;;;2.80;;
3149;SDS011;32503;47.748;8.960;2023-07-16T00:15:01;2.13;;;2.03;;
3149;SDS011;32503;47.748;8.960;2023-07-16T00:17:28;2.77;;;2.57;;
3149;SDS011;32503;47.748;8.960;2023-07-16T00:19:55;2.47;;;2.37;;
3149;SDS011;32503;47.748;8.960;2023-07-16T00:22:22;2.30;;;2.20;;
3149;SDS011;32503;47.748;8.960;2023-07-16T00:24:51;2.37;;;2.17;;
3149;SDS011;32503;47.748;8.960;2023-07-16T00:27:18;2.17;;;2.07;;
3149;SDS011;32503;47.748;8.960;2023-07-16T00:29:45;2.07;;;1.80;;
3149;SDS011;32503;47.748;8.960;2023-07-16T00:32:12;3.37;;;1.60;;
3149;SDS011;32503;47.748;8.960;2023-07-16T00:34:39;1.87;;;1.77;;
3149;SDS011;32503;47.748;8.960;2023-07-16T00:37:06;1.83;;;1.73;;
3149;SDS011;32503;47.748;8.960;2023-07-16T00:39:33;1.70;;;1.60;;
3149;SDS011;32503;47.748;8.960;2023-07-16T00:42:02;1.43;;;1.33;;
3149;SDS011;32503;47.748;8.960;2023-07-16T00:44:30;1.70;;;1.60;;
3149;SDS011;32503;47.748;8.960;2023-07-16T00:46:57;1.60;;;1.50;;
3149;SDS011;32503;47.748;8.960;2023-07-16T00:49:24;1.50;;;1.40;;
3149;SDS011;32503;47.748;8.960;2023-07-16T00:51:51;1.80;;;1.43;;
3149;SDS011;32503;47.748;8.960;2023-07-16T00:54:19;1.70;;;1.60;;
3149;SDS011;32503;47.748;8.960;2023-07-16T00:56:46;1.53;;;1.43;;
3149;SDS011;32503;47.748;8.960;2023-07-16T00:59:15;1.50;;;1.40;;
3149;SDS011;32503;47.748;8.960;2023-07-16T01:01:43;1.20;;;1.10;;
3149;SDS011;32503;47.748;8.960;2023-07-16T01:04:10;1.40;;;1.30;;
3149;SDS011;32503;47.748;8.960;2023-07-16T01:06:38;1.30;;;1.20;;
3149;SDS011;32503;47.748;8.960;2023-07-16T01:09:08;2.33;;;1.47;;
3149;SDS011;32503;47.748;8.960;2023-07-16T01:11:41;1.23;;;1.13;;
3149;SDS011;32503;47.748;8.960;2023-07-16T01:14:10;1.40;;;1.30;;
3149;SDS011;32503;47.748;8.960;2023-07-16T01:16:40;1.40;;;1.30;;
3149;SDS011;32503;47.748;8.960;2023-07-16T01:19:08;1.27;;;1.17;;
3149;SDS011;32503;47.748;8.960;2023-07-16T01:21:38;1.27;;;1.17;;
3149;SDS011;32503;47.748;8.960;2023-07-16T01:24:21;1.63;;;1.30;;
3149;SDS011;32503;47.748;8.960;2023-07-16T01:27:29;0.80;;;0.80;;
3149;SDS011;32503;47.748;8.960;2023-07-16T01:30:17;1.50;;;1.40;;
3149;SDS011;32503;47.748;8.960;2023-07-16T01:32:46;2.90;;;1.00;;
3149;SDS011;32503;47.748;8.960;2023-07-16T01:35:14;1.00;;;0.90;;
3149;SDS011;32503;47.748;8.960;2023-07-16T01:37:42;1.00;;;0.90;;
3149;SDS011;32503;47.748;8.960;2023-07-16T01:40:09;1.27;;;1.17;;
3149;SDS011;32503;47.748;8.960;2023-07-16T01:42:37;1.37;;;1.10;;
3149;SDS011;32503;47.748;8.960;2023-07-16T01:45:05;1.00;;;0.90;;
3149;SDS011;32503;47.748;8.960;2023-07-16T01:47:36;1.00;;;0.90;;
3149;SDS011;32503;47.748;8.960;2023-07-16T01:50:11;0.93;;;0.87;;
3149;SDS011;32503;47.748;8.960;2023-07-16T01:52:38;1.33;;;1.00;;
3149;SDS011;32503;47.748;8.960;2023-07-16T01:55:06;0.97;;;0.87;;
3149;SDS011;32503;47.748;8.960;2023-07-16T01:57:33;1.20;;;1.00;;
3149;SDS011;32503;47.748;8.960;2023-07-16T02:00:01;0.80;;;0.70;;
3149;SDS011;32503;47.748;8.960;2023-07-16T02:02:28;0.80;;;0.80;;
3149;SDS011;32503;47.748;8.960;2023-07-16T02:04:56;1.10;;;1.00;;
3149;SDS011;32503;47.748;8.960;2023-07-16T02:07:23;0.80;;;0.80;;
3149;SDS011;32503;47.748;8.960;2023-07-16T02:09:51;1.30;;;1.20;;
3149;SDS011;32503;47.748;8.960;2023-07-16T02:12:18;1.20;;;1.10;;
3149;SDS011;32503;47.748;8.960;2023-07-16T02:14:45;1.40;;;1.30;;
3149;SDS011;32503;47.748;8.960;2023-07-16T02:17:12;0.83;;;0.83;;
3149;SDS011;32503;47.748;8.960;2023-07-16T02:19:39;1.07;;;0.97;;
3149;SDS011;32503;47.748;8.960;2023-07-16T02:22:07;1.10;;;1.00;;
3149;SDS011;32503;47.748;8.960;2023-07-16T02:24:34;1.23;;;1.13;;
3149;SDS011;32503;47.748;8.960;2023-07-16T02:27:01;2.10;;;0.90;;
3149;SDS011;32503;47.748;8.960;2023-07-16T02:29:29;1.00;;;0.90;;
3149;SDS011;32503;47.748;8.960;2023-07-16T02:31:58;1.10;;;1.00;;
3149;SDS011;32503;47.748;8.960;2023-07-16T02:34:25;1.57;;;1.17;;
3149;SDS011;32503;47.748;8.960;2023-07-16T02:36:52;1.10;;;1.00;;
3149;SDS011;32503;47.748;8.960;2023-07-16T02:39:20;1.00;;;0.90;;
3149;SDS011;32503;47.748;8.960;2023-07-16T02:41:47;1.00;;;0.87;;
3149;SDS011;32503;47.748;8.960;2023-07-16T02:44:14;1.00;;;1.00;;
3149;SDS011;32503;47.748;8.960;2023-07-16T02:46:42;1.23;;;1.13;;
3149;SDS011;32503;47.748;8.960;2023-07-16T02:49:09;1.10;;;1.00;;
3149;SDS011;32503;47.748;8.960;2023-07-16T02:51:36;1.27;;;1.17;;
3149;SDS011;32503;47.748;8.960;2023-07-16T02:54:03;1.20;;;1.10;;
3149;SDS011;32503;47.748;8.960;2023-07-16T02:56:32;1.00;;;1.00;;
3149;SDS011;32503;47.748;8.960;2023-07-16T02:58:59;1.20;;;1.10;;
3149;SDS011;32503;47.748;8.960;2023-07-16T03:01:26;1.00;;;0.93;;
3149;SDS011;32503;47.748;8.960;2023-07-16T03:03:54;0.80;;;0.80;;
3149;SDS011;32503;47.748;8.960;2023-07-16T03:06:21;1.10;;;1.00;;
3149;SDS011;32503;47.748;8.960;2023-07-16T03:08:48;1.10;;;1.00;;
3149;SDS011;32503;47.748;8.960;2023-07-16T03:11:15;0.97;;;0.90;;
3149;SDS011;32503;47.748;8.960;2023-07-16T03:13:43;1.00;;;0.90;;
3149;SDS011;32503;47.748;8.960;2023-07-16T03:16:10;1.10;;;1.00;;
3149;SDS011;32503;47.748;8.960;2023-07-16T03:18:37;0.80;;;0.70;;
3149;SDS011;32503;47.748;8.960;2023-07-16T03:21:05;0.93;;;0.80;;
3149;SDS011;32503;47.748;8.960;2023-07-16T03:23:32;1.03;;;1.00;;
3149;SDS011;32503;47.748;8.960;2023-07-16T03:25:59;1.00;;;0.90;;
3149;SDS011;32503;47.748;8.960;2023-07-16T03:28:26;1.40;;;0.90;;
3149;SDS011;32503;47.748;8.960;2023-07-16T03:30:54;1.10;;;1.00;;
3149;SDS011;32503;47.748;8.960;2023-07-16T03:33:21;0.80;;;0.80;;
3149;SDS011;32503;47.748;8.960;2023-07-16T03:35:49;1.20;;;1.10;;
3149;SDS011;32503;47.748;8.960;2023-07-16T03:38:16;1.10;;;1.00;;
3149;SDS011;32503;47.748;8.960;2023-07-16T03:40:45;1.10;;;1.00;;
3149;SDS011;32503;47.748;8.960;2023-07-16T03:43:14;1.50;;;1.40;;
3149;SDS011;32503;47.748;8.960;2023-07-16T03:45:42;1.63;;;1.53;;
3149;SDS011;32503;47.748;8.960;2023-07-16T03:48:11;1.30;;;1.20;;
3149;SDS011;32503;47.748;8.960;2023-07-16T03:50:38;1.20;;;1.10;;
3149;SDS011;32503;47.748;8.960;2023-07-16T03:53:05;0.97;;;0.87;;
3149;SDS011;32503;47.748;8.960;2023-07-16T03:55:32;0.80;;;0.70;;
3149;SDS011;32503;47.748;8.960;2023-07-16T03:57:59;0.97;;;0.97;;
3149;SDS011;32503;47.748;8.960;2023-07-16T04:00:27;1.57;;;1.47;;
3149;SDS011;32503;47.748;8.960;2023-07-16T04:02:54;0.80;;;0.80;;
3149;SDS011;32503;47.748;8.960;2023-07-16T04:05:22;1.20;;;1.10;;
3149;SDS011;32503;47.748;8.960;2023-07-16T04:07:50;3.13;;;1.07;;
3149;SDS011;32503;47.748;8.960;2023-07-16T04:10:17;0.80;;;0.80;;
3149;SDS011;32503;47.748;8.960;2023-07-16T04:12:45;1.10;;;1.00;;
3149;SDS011;32503;47.748;8.960;2023-07-16T04:15:12;1.30;;;1.20;;
3149;SDS011;32503;47.748;8.960;2023-07-16T04:17:39;1.00;;;1.00;;
3149;SDS011;32503;47.748;8.960;2023-07-16T04:20:06;0.90;;;0.90;;
3149;SDS011;32503;47.748;8.960;2023-07-16T04:22:36;1.13;;;1.03;;
3149;SDS011;32503;47.748;8.960;2023-07-16T04:25:03;1.57;;;1.07;;
3149;SDS011;32503;47.748;8.960;2023-07-16T04:27:31;0.80;;;0.80;;
3149;SDS011;32503;47.748;8.960;2023-07-16T04:29:58;1.30;;;1.20;;
3149;SDS011;32503;47.748;8.960;2023-07-16T04:32:25;1.00;;;0.90;;
3149;SDS011;32503;47.748;8.960;2023-07-16T04:34:52;1.50;;;1.40;;
3149;SDS011;32503;47.748;8.960;2023-07-16T04:37:19;1.40;;;1.30;;
3149;SDS011;32503;47.748;8.960;2023-07-16T04:39:47;1.10;;;1.00;;
3149;SDS011;32503;47.748;8.960;2023-07-16T04:42:15;0.90;;;0.90;;
3149;SDS011;32503;47.748;8.960;2023-07-16T04:44:42;1.40;;;1.30;;
3149;SDS011;32503;47.748;8.960;2023-07-16T04:47:09;1.33;;;0.80;;
3149;SDS011;32503;47.748;8.960;2023-07-16T04:49:36;1.20;;;1.10;;
3149;SDS011;32503;47.748;8.960;2023-07-16T04:52:04;1.33;;;1.10;;
3149;SDS011;32503;47.748;8.960;2023-07-16T04:54:34;1.10;;;1.07;;
3149;SDS011;32503;47.748;8.960;2023-07-16T04:57:05;0.80;;;0.80;;
3149;SDS011;32503;47.748;8.960;2023-07-16T04:59:33;1.43;;;0.80;;
3149;SDS011;32503;47.748;8.960;2023-07-16T05:02:02;1.00;;;0.93;;
3149;SDS011;32503;47.748;8.960;2023-07-16T05:04:31;1.60;;;0.80;;
3149;SDS011;32503;47.748;8.960;2023-07-16T05:06:58;0.80;;;0.80;;
3149;SDS011;32503;47.748;8.960;2023-07-16T05:09:27;1.20;;;1.10;;
3149;SDS011;32503;47.748;8.960;2023-07-16T05:11:54;1.00;;;0.90;;
3149;SDS011;32503;47.748;8.960;2023-07-16T05:14:26;1.20;;;1.10;;
3149;SDS011;32503;47.748;8.960;2023-07-16T05:16:54;1.10;;;1.00;;
3149;SDS011;32503;47.748;8.960;2023-07-16T05:19:22;1.27;;;1.17;;
3149;SDS011;32503;47.748;8.960;2023-07-16T05:21:49;1.20;;;1.10;;
3149;SDS011;32503;47.748;8.960;2023-07-16T05:24:16;1.43;;;1.00;;
3149;SDS011;32503;47.748;8.960;2023-07-16T05:26:43;1.10;;;1.03;;
3149;SDS011;32503;47.748;8.960;2023-07-16T05:29:10;1.03;;;0.93;;
3149;SDS011;32503;47.748;8.960;2023-07-16T05:31:39;1.00;;;1.00;;
3149;SDS011;32503;47.748;8.960;2023-07-16T05:34:06;1.77;;;1.37;;
3149;SDS011;32503;47.748;8.960;2023-07-16T05:36:33;1.00;;;0.90;;
3149;SDS011;32503;47.748;8.960;2023-07-16T05:39:00;1.27;;;1.17;;
3149;SDS011;32503;47.748;8.960;2023-07-16T05:41:27;1.90;;;1.57;;
3149;SDS011;32503;47.748;8.960;2023-07-16T05:43:54;1.37;;;1.23;;
3149;SDS011;32503;47.748;8.960;2023-07-16T05:46:21;1.00;;;0.90;;
3149;SDS011;32503;47.748;8.960;2023-07-16T05:48:49;1.13;;;1.03;;
3149;SDS011;32503;47.748;8.960;2023-07-16T05:51:18;0.87;;;0.80;;
3149;SDS011;32503;47.748;8.960;2023-07-16T05:53:45;1.20;;;1.10;;
3149;SDS011;32503;47.748;8.960;2023-07-16T05:56:12;1.20;;;0.90;;
3149;SDS011;32503;47.748;8.960;2023-07-16T05:58:39;1.13;;;1.03;;
3149;SDS011;32503;47.748;8.960;2023-07-16T06:03:34;1.37;;;0.97;;
3149;SDS011;32503;47.748;8.960;2023-07-16T06:06:03;1.00;;;0.90;;
3149;SDS011;32503;47.748;8.960;2023-07-16T06:08:30;1.23;;;0.90;;
3149;SDS011;32503;47.748;8.960;2023-07-16T06:10:57;1.27;;;1.17;;
3149;SDS011;32503;47.748;8.960;2023-07-16T06:13:24;1.47;;;1.00;;
3149;SDS011;32503;47.748;8.960;2023-07-16T06:15:51;1.83;;;1.10;;
3149;SDS011;32503;47.748;8.960;2023-07-16T06:18:19;1.20;;;1.10;;
3149;SDS011;32503;47.748;8.960;2023-07-16T06:20:46;3.13;;;1.13;;
3149;SDS011;32503;47.748;8.960;2023-07-16T06:23:15;1.17;;;1.07;;
3149;SDS011;32503;47.748;8.960;2023-07-16T06:25:42;1.10;;;1.00;;
3149;SDS011;32503;47.748;8.960;2023-07-16T06:28:09;1.60;;;1.20;;
3149;SDS011;32503;47.748;8.960;2023-07-16T06:30:37;1.30;;;1.20;;
3149;SDS011;32503;47.748;8.960;2023-07-16T06:33:04;1.23;;;1.00;;
3149;SDS011;32503;47.748;8.960;2023-07-16T06:35:31;1.10;;;1.00;;
3149;SDS011;32503;47.748;8.960;2023-07-16T06:37:58;1.20;;;0.80;;
3149;SDS011;32503;47.748;8.960;2023-07-16T06:40:28;1.43;;;1.00;;
3149;SDS011;32503;47.748;8.960;2023-07-16T06:42:55;1.43;;;1.33;;
3149;SDS011;32503;47.748;8.960;2023-07-16T06:45:22;0.97;;;0.90;;
3149;SDS011;32503;47.748;8.960;2023-07-16T06:47:49;1.00;;;0.90;;
3149;SDS011;32503;47.748;8.960;2023-07-16T06:50:16;2.30;;;1.20;;
3149;SDS011;32503;47.748;8.960;2023-07-16T06:52:44;1.07;;;0.97;;
3149;SDS011;32503;47.748;8.960;2023-07-16T06:55:11;1.10;;;0.97;;
3149;SDS011;32503;47.748;8.960;2023-07-16T06:57:40;1.30;;;1.20;;
3149;SDS011;32503;47.748;8.960;2023-07-16T07:00:07;2.10;;;0.90;;
3149;SDS011;32503;47.748;8.960;2023-07-16T07:02:36;1.00;;;0.90;;
3149;SDS011;32503;47.748;8.960;2023-07-16T07:05:04;1.30;;;1.20;;
3149;SDS011;32503;47.748;8.960;2023-07-16T07:07:32;0.90;;;0.80;;
3149;SDS011;32503;47.748;8.960;2023-07-16T07:09:59;0.87;;;0.87;;
3149;SDS011;32503;47.748;8.960;2023-07-16T07:12:26;1.37;;;1.13;;
3149;SDS011;32503;47.748;8.960;2023-07-16T07:14:54;1.23;;;1.13;;
3149;SDS011;32503;47.748;8.960;2023-07-16T07:17:21;1.60;;;1.00;;
3149;SDS011;32503;47.748;8.960;2023-07-16T07:19:48;1.10;;;1.00;;
3149;SDS011;32503;47.748;8.960;2023-07-16T07:22:15;1.50;;;1.40;;
3149;SDS011;32503;47.748;8.960;2023-07-16T07:24:43;1.10;;;1.10;;
3149;SDS011;32503;47.748;8.960;2023-07-16T07:27:10;1.10;;;1.00;;
3149;SDS011;32503;47.748;8.960;2023-07-16T07:29:37;1.03;;;0.93;;
3149;SDS011;32503;47.748;8.960;2023-07-16T07:32:06;1.10;;;1.00;;
3149;SDS011;32503;47.748;8.960;2023-07-16T07:34:34;1.47;;;1.20;;
3149;SDS011;32503;47.748;8.960;2023-07-16T07:37:01;2.00;;;1.83;;
3149;SDS011;32503;47.748;8.960;2023-07-16T07:39:28;3.47;;;2.97;;
3149;SDS011;32503;47.748;8.960;2023-07-16T07:41:55;1.90;;;1.80;;
3149;SDS011;32503;47.748;8.960;2023-07-16T07:44:22;1.53;;;1.03;;
3149;SDS011;32503;47.748;8.960;2023-07-16T07:46:50;1.53;;;1.23;;
3149;SDS011;32503;47.748;8.960;2023-07-16T07:49:18;1.00;;;0.90;;
3149;SDS011;32503;47.748;8.960;2023-07-16T07:51:45;1.20;;;1.00;;
3149;SDS011;32503;47.748;8.960;2023-07-16T07:54:14;2.20;;;1.27;;
3149;SDS011;32503;47.748;8.960;2023-07-16T07:56:41;1.77;;;1.00;;
3149;SDS011;32503;47.748;8.960;2023-07-16T07:59:08;1.63;;;1.03;;
3149;SDS011;32503;47.748;8.960;2023-07-16T08:01:35;1.47;;;1.27;;
3149;SDS011;32503;47.748;8.960;2023-07-16T08:04:02;1.00;;;1.00;;
3149;SDS011;32503;47.748;8.960;2023-07-16T08:06:31;1.13;;;0.93;;
3149;SDS011;32503;47.748;8.960;2023-07-16T08:08:58;1.03;;;0.93;;
3149;SDS011;32503;47.748;8.960;2023-07-16T08:11:26;1.20;;;1.10;;
3149;SDS011;32503;47.748;8.960;2023-07-16T08:13:53;0.97;;;0.87;;
3149;SDS011;32503;47.748;8.960;2023-07-16T08:16:20;0.80;;;0.80;;
3149;SDS011;32503;47.748;8.960;2023-07-16T08:18:47;1.10;;;1.00;;
3149;SDS011;32503;47.748;8.960;2023-07-16T08:21:14;1.30;;;1.20;;
3149;SDS011;32503;47.748;8.960;2023-07-16T08:23:46;1.30;;;1.20;;
3149;SDS011;32503;47.748;8.960;2023-07-16T08:26:13;2.70;;;1.23;;
3149;SDS011;32503;47.748;8.960;2023-07-16T08:28:40;1.20;;;1.10;;
3149;SDS011;32503;47.748;8.960;2023-07-16T08:31:08;1.60;;;1.50;;
3149;SDS011;32503;47.748;8.960;2023-07-16T08:33:37;1.57;;;1.30;;
3149;SDS011;32503;47.748;8.960;2023-07-16T08:36:05;2.60;;;1.20;;
3149;SDS011;32503;47.748;8.960;2023-07-16T08:38:32;1.20;;;1.10;;
3149;SDS011;32503;47.748;8.960;2023-07-16T08:41:01;1.03;;;0.93;;
3149;SDS011;32503;47.748;8.960;2023-07-16T08:43:28;1.10;;;1.00;;
3149;SDS011;32503;47.748;8.960;2023-07-16T08:45:56;1.27;;;0.97;;
3149;SDS011;32503;47.748;8.960;2023-07-16T08:48:24;1.37;;;1.00;;
3149;SDS011;32503;47.748;8.960;2023-07-16T08:50:53;1.57;;;1.13;;
3149;SDS011;32503;47.748;8.960;2023-07-16T08:53:23;1.30;;;1.20;;
3149;SDS011;32503;47.748;8.960;2023-07-16T08:55:50;1.47;;;1.07;;
3149;SDS011;32503;47.748;8.960;2023-07-16T08:58:19;1.30;;;1.20;;
3149;SDS011;32503;47.748;8.960;2023-07-16T09:00:49;2.77;;;1.33;;
3149;SDS011;32503;47.748;8.960;2023-07-16T09:03:18;1.20;;;1.10;;
3149;SDS011;32503;47.748;8.960;2023-07-16T09:05:45;1.33;;;1.10;;
3149;SDS011;32503;47.748;8.960;2023-07-16T09:08:12;1.73;;;1.13;;
3149;SDS011;32503;47.748;8.960;2023-07-16T09:10:40;1.70;;;1.60;;
3149;SDS011;32503;47.748;8.960;2023-07-16T09:13:07;1.30;;;1.20;;
3149;SDS011;32503;47.748;8.960;2023-07-16T09:15:36;1.30;;;1.20;;
3149;SDS011;32503;47.748;8.960;2023-07-16T09:18:05;1.27;;;1.17;;
3149;SDS011;32503;47.748;8.960;2023-07-16T09:20:35;1.57;;;1.47;;
3149;SDS011;32503;47.748;8.960;2023-07-16T09:23:02;1.30;;;1.20;;
3149;SDS011;32503;47.748;8.960;2023-07-16T09:25:29;1.07;;;1.00;;
3149;SDS011;32503;47.748;8.960;2023-07-16T09:27:58;1.30;;;1.20;;
3149;SDS011;32503;47.748;8.960;2023-07-16T09:30:30;1.70;;;1.60;;
3149;SDS011;32503;47.748;8.960;2023-07-16T09:33:03;1.50;;;1.40;;
3149;SDS011;32503;47.748;8.960;2023-07-16T09:35:38;1.17;;;1.07;;
3149;SDS011;32503;47.748;8.960;2023-07-16T09:38:05;1.10;;;1.00;;
3149;SDS011;32503;47.748;8.960;2023-07-16T09:40:34;1.40;;;1.30;;
3149;SDS011;32503;47.748;8.960;2023-07-16T09:43:02;1.53;;;1.30;;
3149;SDS011;32503;47.748;8.960;2023-07-16T09:45:29;1.70;;;1.53;;
3149;SDS011;32503;47.748;8.960;2023-07-16T09:47:57;1.50;;;1.40;;
3149;SDS011;32503;47.748;8.960;2023-07-16T09:50:26;1.63;;;1.53;;
3149;SDS011;32503;47.748;8.960;2023-07-16T09:52:55;1.23;;;1.13;;
3149;SDS011;32503;47.748;8.960;2023-07-16T09:55:23;1.40;;;1.23;;
3149;SDS011;32503;47.748;8.960;2023-07-16T09:57:52;1.30;;;1.20;;
3149;SDS011;32503;47.748;8.960;2023-07-16T10:00:23;1.63;;;1.53;;
3149;SDS011;32503;47.748;8.960;2023-07-16T10:02:51;1.40;;;1.30;;
3149;SDS011;32503;47.748;8.960;2023-07-16T10:05:19;2.27;;;1.90;;
3149;SDS011;32503;47.748;8.960;2023-07-16T10:07:52;1.50;;;1.40;;
3149;SDS011;32503;47.748;8.960;2023-07-16T10:10:29;1.50;;;1.40;;
3149;SDS011;32503;47.748;8.960;2023-07-16T10:13:06;1.50;;;1.40;;
3149;SDS011;32503;47.748;8.960;2023-07-16T10:15:34;1.40;;;1.30;;
3149;SDS011;32503;47.748;8.960;2023-07-16T10:18:01;1.40;;;1.30;;
3149;SDS011;32503;47.748;8.960;2023-07-16T10:20:28;1.17;;;1.07;;
3149;SDS011;32503;47.748;8.960;2023-07-16T10:22:59;1.77;;;1.67;;
3149;SDS011;32503;47.748;8.960;2023-07-16T10:25:38;1.00;;;0.90;;
3149;SDS011;32503;47.748;8.960;2023-07-16T10:28:06;1.53;;;1.43;;
3149;SDS011;32503;47.748;8.960;2023-07-16T10:30:33;2.97;;;2.77;;
3149;SDS011;32503;47.748;8.960;2023-07-16T10:33:02;1.67;;;1.20;;
3149;SDS011;32503;47.748;8.960;2023-07-16T10:35:40;1.57;;;1.47;;
3149;SDS011;32503;47.748;8.960;2023-07-16T10:38:09;1.40;;;1.30;;
3149;SDS011;32503;47.748;8.960;2023-07-16T10:40:39;1.43;;;1.33;;
3149;SDS011;32503;47.748;8.960;2023-07-16T10:43:06;1.40;;;1.30;;
3149;SDS011;32503;47.748;8.960;2023-07-16T10:45:34;1.37;;;1.27;;
3149;SDS011;32503;47.748;8.960;2023-07-16T10:48:01;2.63;;;1.37;;
3149;SDS011;32503;47.748;8.960;2023-07-16T10:50:31;1.30;;;1.20;;
3149;SDS011;32503;47.748;8.960;2023-07-16T10:52:59;1.40;;;1.30;;
3149;SDS011;32503;47.748;8.960;2023-07-16T10:55:29;1.50;;;1.40;;
3149;SDS011;32503;47.748;8.960;2023-07-16T10:58:03;1.70;;;1.60;;
3149;SDS011;32503;47.748;8.960;2023-07-16T11:00:32;1.83;;;1.50;;
3149;SDS011;32503;47.748;8.960;2023-07-16T11:03:03;1.60;;;1.43;;
3149;SDS011;32503;47.748;8.960;2023-07-16T11:05:30;1.47;;;1.37;;
3149;SDS011;32503;47.748;8.960;2023-07-16T11:07:58;1.77;;;1.67;;
3149;SDS011;32503;47.748;8.960;2023-07-16T11:10:27;1.47;;;1.37;;
3149;SDS011;32503;47.748;8.960;2023-07-16T11:12:56;1.40;;;1.30;;
3149;SDS011;32503;47.748;8.960;2023-07-16T11:15:30;1.50;;;1.40;;
3149;SDS011;32503;47.748;8.960;2023-07-16T11:17:59;1.40;;;1.30;;
3149;SDS011;32503;47.748;8.960;2023-07-16T11:20:27;1.60;;;1.50;;
3149;SDS011;32503;47.748;8.960;2023-07-16T11:22:57;1.83;;;1.73;;
3149;SDS011;32503;47.748;8.960;2023-07-16T11:25:25;1.47;;;1.37;;
3149;SDS011;32503;47.748;8.960;2023-07-16T11:27:55;1.50;;;1.40;;
3149;SDS011;32503;47.748;8.960;2023-07-16T11:30:22;1.60;;;1.50;;
3149;SDS011;32503;47.748;8.960;2023-07-16T11:32:50;1.53;;;1.43;;
3149;SDS011;32503;47.748;8.960;2023-07-16T11:35:18;1.87;;;1.77;;
3149;SDS011;32503;47.748;8.960;2023-07-16T11:37:46;2.60;;;1.60;;
3149;SDS011;32503;47.748;8.960;2023-07-16T11:40:15;3.00;;;1.40;;
3149;SDS011;32503;47.748;8.960;2023-07-16T11:42:44;1.83;;;1.73;;
3149;SDS011;32503;47.748;8.960;2023-07-16T11:45:16;1.83;;;1.73;;
3149;SDS011;32503;47.748;8.960;2023-07-16T11:47:45;3.00;;;1.70;;
3149;SDS011;32503;47.748;8.960;2023-07-16T11:50:12;1.60;;;1.50;;
3149;SDS011;32503;47.748;8.960;2023-07-16T11:52:40;1.87;;;1.77;;
3149;SDS011;32503;47.748;8.960;2023-07-16T11:55:07;2.60;;;1.63;;
3149;SDS011;32503;47.748;8.960;2023-07-16T11:57:35;1.30;;;1.20;;
3149;SDS011;32503;47.748;8.960;2023-07-16T12:00:02;1.50;;;1.40;;
3149;SDS011;32503;47.748;8.960;2023-07-16T12:02:33;2.13;;;1.70;;
3149;SDS011;32503;47.748;8.960;2023-07-16T12:05:00;1.80;;;1.70;;
3149;SDS011;32503;47.748;8.960;2023-07-16T12:07:31;1.27;;;1.17;;
3149;SDS011;32503;47.748;8.960;2023-07-16T12:10:00;3.20;;;2.17;;
3149;SDS011;32503;47.748;8.960;2023-07-16T12:12:28;2.67;;;1.83;;
3149;SDS011;32503;47.748;8.960;2023-07-16T12:14:55;1.30;;;1.20;;
3149;SDS011;32503;47.748;8.960;2023-07-16T12:17:22;1.73;;;1.63;;
3149;SDS011;32503;47.748;8.960;2023-07-16T12:19:51;1.57;;;1.30;;
3149;SDS011;32503;47.748;8.960;2023-07-16T12:22:18;1.83;;;1.73;;
3149;SDS011;32503;47.748;8.960;2023-07-16T12:24:46;1.77;;;1.67;;
3149;SDS011;32503;47.748;8.960;2023-07-16T12:27:13;1.60;;;1.50;;
3149;SDS011;32503;47.748;8.960;2023-07-16T12:29:41;1.83;;;1.60;;
3149;SDS011;32503;47.748;8.960;2023-07-16T12:32:08;1.77;;;1.47;;
3149;SDS011;32503;47.748;8.960;2023-07-16T12:34:36;1.50;;;1.40;;
3149;SDS011;32503;47.748;8.960;2023-07-16T12:37:04;1.40;;;1.30;;
3149;SDS011;32503;47.748;8.960;2023-07-16T12:39:33;1.73;;;1.63;;
3149;SDS011;32503;47.748;8.960;2023-07-16T12:42:00;1.90;;;1.80;;
3149;SDS011;32503;47.748;8.960;2023-07-16T12:44:27;3.13;;;2.30;;
3149;SDS011;32503;47.748;8.960;2023-07-16T12:46:55;1.53;;;1.43;;
3149;SDS011;32503;47.748;8.960;2023-07-16T12:49:22;1.60;;;1.50;;
3149;SDS011;32503;47.748;8.960;2023-07-16T12:51:49;2.40;;;1.73;;
3149;SDS011;32503;47.748;8.960;2023-07-16T12:54:17;1.77;;;1.67;;
3149;SDS011;32503;47.748;8.960;2023-07-16T12:56:45;1.77;;;1.67;;
3149;SDS011;32503;47.748;8.960;2023-07-16T12:59:12;1.70;;;1.60;;
3149;SDS011;32503;47.748;8.960;2023-07-16T13:01:39;2.17;;;1.57;;
3149;SDS011;32503;47.748;8.960;2023-07-16T13:04:06;1.77;;;1.67;;
3149;SDS011;32503;47.748;8.960;2023-07-16T13:06:33;1.40;;;1.30;;
3149;SDS011;32503;47.748;8.960;2023-07-16T13:09:00;1.60;;;1.50;;
3149;SDS011;32503;47.748;8.960;2023-07-16T13:11:31;1.97;;;1.60;;
3149;SDS011;32503;47.748;8.960;2023-07-16T13:13:58;2.00;;;1.80;;
3149;SDS011;32503;47.748;8.960;2023-07-16T13:16:26;1.47;;;1.37;;
3149;SDS011;32503;47.748;8.960;2023-07-16T13:18:53;1.50;;;1.40;;
3149;SDS011;32503;47.748;8.960;2023-07-16T13:21:20;1.90;;;1.80;;
3149;SDS011;32503;47.748;8.960;2023-07-16T13:23:47;3.73;;;1.70;;
3149;SDS011;32503;47.748;8.960;2023-07-16T13:26:14;1.53;;;1.30;;
3149;SDS011;32503;47.748;8.960;2023-07-16T13:28:43;1.70;;;1.60;;
3149;SDS011;32503;47.748;8.960;2023-07-16T13:31:10;1.97;;;1.87;;
3149;SDS011;32503;47.748;8.960;2023-07-16T13:33:37;1.73;;;1.63;;
3149;SDS011;32503;47.748;8.960;2023-07-16T13:36:05;1.40;;;1.30;;
3149;SDS011;32503;47.748;8.960;2023-07-16T13:38:32;1.80;;;1.70;;
3149;SDS011;32503;47.748;8.960;2023-07-16T13:40:59;1.53;;;1.43;;
3149;SDS011;32503;47.748;8.960;2023-07-16T13:43:26;1.30;;;1.20;;
3149;SDS011;32503;47.748;8.960;2023-07-16T13:45:55;2.23;;;2.07;;
3149;SDS011;32503;47.748;8.960;2023-07-16T13:48:22;1.67;;;1.57;;
3149;SDS011;32503;47.748;8.960;2023-07-16T13:50:49;1.53;;;1.43;;
3149;SDS011;32503;47.748;8.960;2023-07-16T13:53:16;1.73;;;1.63;;
3149;SDS011;32503;47.748;8.960;2023-07-16T13:55:44;1.70;;;1.60;;
3149;SDS011;32503;47.748;8.960;2023-07-16T13:58:11;1.60;;;1.50;;
3149;SDS011;32503;47.748;8.960;2023-07-16T14:00:39;2.07;;;1.87;;
3149;SDS011;32503;47.748;8.960;2023-07-16T14:03:08;2.63;;;2.43;;
3149;SDS011;32503;47.748;8.960;2023-07-16T14:05:35;1.70;;;1.60;;
3149;SDS011;32503;47.748;8.960;2023-07-16T14:08:04;2.27;;;2.07;;
3149;SDS011;32503;47.748;8.960;2023-07-16T14:10:31;1.40;;;1.30;;
3149;SDS011;32503;47.748;8.960;2023-07-16T14:12:58;2.10;;;2.00;;
3149;SDS011;32503;47.748;8.960;2023-07-16T14:15:25;1.57;;;1.47;;
3149;SDS011;32503;47.748;8.960;2023-07-16T14:17:52;1.77;;;1.67;;
3149;SDS011;32503;47.748;8.960;2023-07-16T14:20:21;1.73;;;1.63;;
3149;SDS011;32503;47.748;8.960;2023-07-16T14:22:48;1.90;;;1.80;;
3149;SDS011;32503;47.748;8.960;2023-07-16T14:25:15;1.97;;;1.87;;
3149;SDS011;32503;47.748;8.960;2023-07-16T14:27:43;1.83;;;1.73;;
3149;SDS011;32503;47.748;8.960;2023-07-16T14:30:10;1.63;;;1.53;;
3149;SDS011;32503;47.748;8.960;2023-07-16T14:32:37;3.00;;;1.60;;
3149;SDS011;32503;47.748;8.960;2023-07-16T14:35:04;1.50;;;1.40;;
3149;SDS011;32503;47.748;8.960;2023-07-16T14:37:34;2.30;;;2.20;;
3149;SDS011;32503;47.748;8.960;2023-07-16T14:40:01;1.80;;;1.70;;
3149;SDS011;32503;47.748;8.960;2023-07-16T14:42:30;1.80;;;1.70;;
3149;SDS011;32503;47.748;8.960;2023-07-16T14:44:57;1.60;;;1.50;;
3149;SDS011;32503;47.748;8.960;2023-07-16T14:47:25;1.70;;;1.60;;
3149;SDS011;32503;47.748;8.960;2023-07-16T14:49:52;1.63;;;1.53;;
3149;SDS011;32503;47.748;8.960;2023-07-16T14:52:19;1.57;;;1.47;;
3149;SDS011;32503;47.748;8.960;2023-07-16T14:54:48;1.80;;;1.70;;
3149;SDS011;32503;47.748;8.960;2023-07-16T14:57:15;1.80;;;1.70;;
3149;SDS011;32503;47.748;8.960;2023-07-16T14:59:42;1.53;;;1.43;;
3149;SDS011;32503;47.748;8.960;2023-07-16T15:02:12;2.10;;;2.00;;
3149;SDS011;32503;47.748;8.960;2023-07-16T15:04:40;2.00;;;1.77;;
3149;SDS011;32503;47.748;8.960;2023-07-16T15:07:07;1.40;;;1.30;;